Time;durP1;ratioP1;P1;durP2;ratioP2;P2;SDS_P1;SDS_P2;PMS_P1;PMS_P2;Temp;Humidity;BMP_temperature;BMP_pressure;BME280_temperature;BME280_humidity;BME280_pressure;Samples;Min_cycle;Max_cycle;Signal;HPM_P1;HPM_P2
2022/08/08 15:03:18;;;;;;;;;;;;;;;24.36;58.53;99966.03;4822465;29;19929;-66
2022/08/08 15:05:49;;;;;;;;;;;;;;;24.28;59.59;99957.78;4825364;29;19971;-65
2022/08/08 15:08:27;;;;;;;;;;;;;;;24.23;60.59;99971.06;4824270;29;19976;-72
2022/08/08 15:14:50;;;;;;;;;;;;;;;23.89;62.02;99984.94;4841357;29;19928;-69
2022/08/08 15:17:30;;;;;;;;;;;;;;;23.80;62.30;99974.94;4817455;29;19971;-72
2022/08/08 15:20:27;;;;;;;;;;;;;;;23.86;62.71;99977.28;4817076;29;19929;-72
2022/08/08 15:26:05;;;;;;;;;;;;;;;23.84;62.95;99975.66;4829013;29;20402;-68
2022/08/08 15:31:58;;;;;;;;;;;;;;;;;;;;;
2022/08/08 15:34:50;;;;;;;;;;;;;;;23.32;63.60;99977.34;4826720;29;19928;-68
2022/08/08 15:37:31;;;;;;;;;;;;;;;23.32;63.57;99977.34;4819678;29;19933;-70
2022/08/08 15:40:25;;;;;;;;;;;;;;;23.35;63.35;99979.81;4822412;29;19933;-69
2022/08/08 15:43:09;;;;;;;;;;;;;;;23.35;63.47;99974.59;4829259;29;20301;-71
2022/08/08 15:46:17;;;;;;;;;;;;;;;23.39;63.67;99975.31;4831654;29;19928;-69
2022/08/08 15:49:03;;;;;;;;;;;;;;;23.47;63.72;99971.41;4823704;29;19928;-70
2022/08/08 15:52:20;;;;;;;;;;;;;;;23.47;63.72;99967.97;4831300;29;19928;-69
2022/08/08 15:55:39;;;;;;;;;;;;;;;23.51;63.81;99965.16;4822657;29;19964;-69
2022/08/08 15:58:34;;;;;;;;;;;;;;;23.68;63.11;99961.72;4826401;29;19940;-71
2022/08/08 16:01:23;;;;;;;;;;;;;;;23.62;63.18;99957.63;4827648;29;21661;-70
2022/08/08 16:04:17;;;;;;;;;;;;;;;23.62;63.52;99957.63;4810507;29;19978;-72
2022/08/08 16:13:58;;;;;;;;;;;;;;;23.50;63.30;99958.22;4757612;30;20033;-70
2022/08/08 16:16:57;;;;;;;;;;;;;;;23.52;63.22;99956.41;4766146;30;19929;-69
2022/08/08 16:26:18;;;;;;;;;;;;;;;23.43;63.16;99956.84;4767630;30;20013;-69
2022/08/08 16:32:44;;;;;;;;;;;;;;;23.60;62.78;99954.25;4751003;30;19930;-71
2022/08/08 16:35:44;;;;;;;;;;;;;;;23.69;62.57;99952.94;4766293;30;19941;-70
2022/08/08 16:38:37;;;;;;;;;;;;;;;;;;;;;
2022/08/08 16:41:40;;;;;;;;;;;;;;;23.83;61.53;99948.72;4765952;30;19933;-69
2022/08/08 16:44:57;;;;;;;;;;;;;;;23.95;60.78;99955.09;4772032;30;20023;-71
2022/08/08 16:47:34;;;;;;;;;;;;;;;23.88;60.23;99949.34;4769957;30;20427;-73
2022/08/08 16:54:13;;;;;;;;;;;;;;;23.75;59.41;99953.50;4807442;29;19936;-70
2022/08/08 16:57:47;;;;;;;;;;;;;;;23.72;59.50;99964.09;4806901;29;20412;-70
2022/08/08 17:00:37;;;;;;;;;;;;;;;23.65;60.30;99962.69;4806275;29;20280;-69
2022/08/08 17:03:06;;;;;;;;;;;;;;;23.56;59.66;99960.56;4816353;29;19960;-70
2022/08/08 17:05:36;;;;;;;;;;;;;;;23.51;59.38;99970.38;4827250;29;19928;-70
2022/08/08 17:08:12;;;;;;;;;;;;;;;23.45;60.32;99970.66;4828031;29;19951;-68
2022/08/08 17:10:41;;;;;;;;;;;;;;;23.52;60.78;99974.63;4825613;29;20379;-71
2022/08/08 17:13:26;;;;;;;;;;;;;;;23.53;61.24;99978.94;4827680;29;20313;-70
2022/08/08 17:16:15;;;;;;;;;;;;;;;23.51;61.10;99978.19;4824680;29;19929;-71
2022/08/08 17:18:44;;;;;;;;;;;;;;;23.47;61.44;99984.44;4824498;29;19928;-72
2022/08/08 17:21:13;;;;;;;;;;;;;;;23.41;61.98;99987.34;4826316;29;19978;-69
2022/08/08 17:23:41;;;;;;;;;;;;;;;23.29;62.15;99985.31;4809251;29;19983;-71
2022/08/08 17:26:29;;;;;;;;;;;;;;;23.18;62.53;99987.56;4822589;29;19960;-68
2022/08/08 17:28:57;;;;;;;;;;;;;;;;;;4825195;29;19929;-69
2022/08/08 17:31:27;;;;;;;;;;;;;;;22.93;63.92;99992.25;4824478;29;19929;-70
2022/08/08 17:34:14;;;;;;;;;;;;;;;22.83;64.75;99997.03;4826717;29;20019;-70
2022/08/08 17:37:03;;;;;;;;;;;;;;;22.77;65.17;99994.69;4824787;29;20337;-70
2022/08/08 17:39:36;;;;;;;;;;;;;;;22.71;65.15;100001.94;4824973;29;19971;-70
2022/08/08 17:42:25;;;;;;;;;;;;;;;22.60;65.36;99999.78;4796902;29;19960;-69
2022/08/08 17:44:54;;;;;;;;;;;;;;;22.57;65.40;100000.78;4826125;29;19933;-70
2022/08/08 17:47:24;;;;;;;;;;;;;;;22.62;65.75;100008.41;4825830;29;20063;-68
2022/08/08 17:50:05;;;;;;;;;;;;;;;22.64;65.61;100015.22;4825974;29;20375;-69
2022/08/08 17:52:34;;;;;;;;;;;;;;;22.70;65.50;100010.66;4825921;29;19936;-71
2022/08/08 17:55:06;;;;;;;;;;;;;;;22.79;65.30;100015.44;4825879;29;19929;-69
2022/08/08 17:57:54;;;;;;;;;;;;;;;22.85;65.21;100015.16;4824842;29;19978;-69
2022/08/08 18:00:24;;;;;;;;;;;;;;;22.85;65.33;100015.16;4824936;29;19940;-70
2022/08/08 18:03:01;;;;;;;;;;;;;;;22.87;65.43;100018.53;4824723;29;20303;-70
2022/08/08 18:05:41;;;;;;;;;;;;;;;22.90;65.38;100013.19;4822125;29;19939;-71
2022/08/08 18:08:18;;;;;;;;;;;;;;;22.85;65.55;100018.63;4813138;29;20028;-70
2022/08/08 18:11:06;;;;;;;;;;;;;;;22.75;65.59;100019.94;4807409;29;19976;-72
2022/08/08 18:13:36;;;;;;;;;;;;;;;22.64;65.80;100011.78;4823736;29;19943;-67
2022/08/08 18:16:08;;;;;;;;;;;;;;;22.48;66.33;100016.78;4825129;29;19933;-69
2022/08/08 18:18:39;;;;;;;;;;;;;;;22.48;66.48;100023.75;4808913;29;20029;-70
2022/08/08 18:21:12;;;;;;;;;;;;;;;22.45;66.62;100024.72;4815312;29;19928;-71
2022/08/08 18:24:01;;;;;;;;;;;;;;;22.33;67.34;100038.28;4820562;29;19929;-73
2022/08/08 18:26:29;;;;;;;;;;;;;;;22.33;67.58;100033.06;4825116;29;19986;-68
2022/08/08 18:29:00;;;;;;;;;;;;;;;22.11;68.01;100036.63;4825753;29;19932;-72
2022/08/08 18:31:28;;;;;;;;;;;;;;;22.10;67.55;100034.97;4825752;29;20011;-69
2022/08/08 18:33:58;;;;;;;;;;;;;;;22.00;67.15;100037.09;4825265;29;20395;-72
2022/08/08 18:36:47;;;;;;;;;;;;;;;21.98;67.28;100036.28;4822583;29;20376;-73
2022/08/08 18:39:16;;;;;;;;;;;;;;;21.97;67.38;100050.22;4825096;29;19936;-70
2022/08/08 18:41:57;;;;;;;;;;;;;;;21.90;67.63;100046.19;4822677;29;19937;-68
2022/08/08 18:44:31;;;;;;;;;;;;;;;21.87;67.62;100048.91;4824204;29;19932;-73
2022/08/08 18:47:03;;;;;;;;;;;;;;;21.83;67.82;100047.31;4825312;29;19975;-72
2022/08/08 18:49:33;;;;;;;;;;;;;;;21.92;67.56;100047.81;4823362;29;19933;-67
2022/08/08 18:52:22;;;;;;;;;;;;;;;21.81;67.88;100060.34;4824387;29;19993;-70
2022/08/08 18:54:51;;;;;;;;;;;;;;;21.80;68.40;100055.22;4826432;29;19936;-72
2022/08/08 18:57:38;;;;;;;;;;;;;;;21.82;68.27;100061.19;4825045;29;19935;-69
2022/08/08 19:00:11;;;;;;;;;;;;;;;21.79;67.79;100069.97;4824430;29;19936;-71
2022/08/08 19:02:49;;;;;;;;;;;;;;;21.84;68.06;100074.97;4826809;29;19929;-72
2022/08/08 19:05:38;;;;;;;;;;;;;;;21.89;67.19;100078.25;4819651;29;19929;-70
2022/08/08 19:08:15;;;;;;;;;;;;;;;21.78;66.58;100080.44;4827110;29;19968;-71
2022/08/08 19:10:55;;;;;;;;;;;;;;;21.64;66.54;100073.19;4833505;29;19955;-70
2022/08/08 19:13:24;;;;;;;;;;;;;;;21.64;66.97;100082.72;4820315;29;19978;-70
2022/08/08 19:16:12;;;;;;;;;;;;;;;21.63;66.93;100088.81;4821290;29;20130;-69
2022/08/08 19:18:47;;;;;;;;;;;;;;;21.57;67.15;100081.28;4822987;29;19933;-72
2022/08/08 19:21:27;;;;;;;;;;;;;;;21.51;67.81;100086.69;4822455;29;19928;-68
2022/08/08 19:23:58;;;;;;;;;;;;;;;21.51;67.54;100086.69;4823242;29;19935;-73
2022/08/08 19:26:27;;;;;;;;;;;;;;;21.57;67.68;100081.28;4821366;29;19951;-73
2022/08/08 19:28:59;;;;;;;;;;;;;;;21.64;67.23;100078.38;4823840;29;20444;-74
2022/08/08 19:31:31;;;;;;;;;;;;;;;21.69;66.99;100080.81;4824415;29;20417;-73
2022/08/08 19:34:04;;;;;;;;;;;;;;;21.75;66.39;100080.53;4822931;29;19982;-69
2022/08/08 19:36:54;;;;;;;;;;;;;;;21.81;64.99;100081.13;4823329;29;19929;-73
2022/08/08 19:39:26;;;;;;;;;;;;;;;21.87;63.99;100085.28;4823312;29;20103;-68
2022/08/08 19:42:03;;;;;;;;;;;;;;;21.91;62.88;100092.88;4823200;29;20367;-73
2022/08/08 19:44:34;;;;;;;;;;;;;;;21.97;62.22;100086.59;4806703;29;19928;-73
2022/08/08 19:47:17;;;;;;;;;;;;;;;22.03;61.18;100091.53;4824971;29;20333;-70
2022/08/08 19:50:01;;;;;;;;;;;;;;;22.02;60.09;100097.66;4824328;29;19941;-72
2022/08/08 19:52:33;;;;;;;;;;;;;;;22.01;59.22;100096.81;4817760;29;20383;-68
2022/08/08 19:55:08;;;;;;;;;;;;;;;22.05;58.70;100092.34;4816063;29;20398;-68
2022/08/08 19:57:39;;;;;;;;;;;;;;;22.10;58.65;100092.97;4820541;29;19978;-68
2022/08/08 20:00:10;;;;;;;;;;;;;;;22.05;59.15;100100.16;4822819;29;19929;-73
2022/08/08 20:03:01;;;;;;;;;;;;;;;21.90;59.49;100103.38;4817654;29;19936;-68
2022/08/08 20:05:50;;;;;;;;;;;;;;;21.93;59.33;100108.44;4806937;29;20392;-73
2022/08/08 20:08:41;;;;;;;;;;;;;;;21.92;59.91;100104.13;4821976;29;20413;-69
2022/08/08 20:11:18;;;;;;;;;;;;;;;21.93;59.58;100100.66;4823956;29;19994;-68
2022/08/08 20:13:49;;;;;;;;;;;;;;;21.91;58.73;100102.44;4824900;29;19936;-71
2022/08/08 20:16:38;;;;;;;;;;;;;;;21.92;58.51;100109.34;4820974;29;20454;-72
2022/08/08 20:19:08;;;;;;;;;;;;;;;21.92;58.08;100109.34;4821584;29;19931;-69
2022/08/08 20:21:37;;;;;;;;;;;;;;;21.97;58.48;100102.22;4821989;29;19933;-69
2022/08/08 20:24:08;;;;;;;;;;;;;;;22.00;58.61;100102.91;4822736;29;19937;-69
2022/08/08 20:26:39;;;;;;;;;;;;;;;22.00;58.91;100096.91;4817259;29;20435;-70
2022/08/08 20:29:14;;;;;;;;;;;;;;;21.90;59.23;100087.75;4814173;29;19929;-69
2022/08/08 20:31:43;;;;;;;;;;;;;;;21.86;59.29;100088.78;4823016;29;20008;-70
2022/08/08 20:34:31;;;;;;;;;;;;;;;21.83;59.20;100088.88;4820837;29;19936;-71
2022/08/08 20:37:03;;;;;;;;;;;;;;;21.79;59.48;100088.16;4824889;29;19939;-69
2022/08/08 20:39:35;;;;;;;;;;;;;;;21.75;59.11;100080.53;4824446;29;19985;-70
2022/08/08 20:42:19;;;;;;;;;;;;;;;21.72;59.01;100076.31;4822919;29;19929;-69
2022/08/08 20:44:57;;;;;;;;;;;;;;;21.64;59.50;100087.94;4821821;29;19929;-70
2022/08/08 20:47:25;;;;;;;;;;;;;;;21.61;59.51;100088.88;4822827;29;19929;-70
2022/08/08 20:50:04;;;;;;;;;;;;;;;21.49;58.76;100083.31;4823504;29;19933;-72
2022/08/08 20:52:32;;;;;;;;;;;;;;;21.43;58.00;100074.00;4823652;29;19955;-72
2022/08/08 20:55:02;;;;;;;;;;;;;;;21.41;57.99;100085.34;4822473;29;19986;-71
2022/08/08 20:57:50;;;;;;;;;;;;;;;21.45;58.25;100092.97;4823463;29;19929;-71
2022/08/08 21:00:19;;;;;;;;;;;;;;;21.40;58.15;100078.47;4823736;29;19954;-69
2022/08/08 21:02:50;;;;;;;;;;;;;;;21.32;57.94;100082.22;4832283;29;19929;-68
2022/08/08 21:05:20;;;;;;;;;;;;;;;21.24;57.84;100071.28;4824895;29;19939;-70
2022/08/08 21:07:51;;;;;;;;;;;;;;;21.22;57.97;100067.88;4825103;29;19935;-69
2022/08/08 21:10:41;;;;;;;;;;;;;;;21.24;57.83;100063.47;4817562;29;19928;-73
2022/08/08 21:13:10;;;;;;;;;;;;;;;21.22;57.86;100054.91;4823814;29;19960;-67
2022/08/08 21:15:38;;;;;;;;;;;;;;;21.22;57.87;100060.09;4822716;29;20696;-71
2022/08/08 21:18:26;;;;;;;;;;;;;;;21.23;58.40;100064.41;4822965;29;19928;-69
2022/08/08 21:20:55;;;;;;;;;;;;;;;21.28;58.44;100059.84;4829822;29;20333;-68
2022/08/08 21:23:24;;;;;;;;;;;;;;;21.29;58.52;100063.31;4814414;29;19968;-68
2022/08/08 21:26:15;;;;;;;;;;;;;;;21.28;58.99;100069.41;4827831;29;20387;-73
2022/08/08 21:28:54;;;;;;;;;;;;;;;21.29;58.97;100071.09;4825840;29;19928;-73
2022/08/08 21:31:29;;;;;;;;;;;;;;;21.20;58.67;100067.09;4827733;29;20390;-67
2022/08/08 21:34:18;;;;;;;;;;;;;;;21.13;58.62;100076.03;4824308;29;20303;-71
2022/08/08 21:36:47;;;;;;;;;;;;;;;21.11;59.00;100072.66;4827130;29;19968;-68
2022/08/08 21:39:16;;;;;;;;;;;;;;;21.13;59.10;100075.19;4827872;29;19987;-70
2022/08/08 21:41:51;;;;;;;;;;;;;;;21.08;59.35;100077.94;4826200;29;19935;-69
2022/08/08 21:44:26;;;;;;;;;;;;;;;21.05;59.56;100082.41;4826563;29;20299;-68
2022/08/08 21:47:00;;;;;;;;;;;;;;;20.98;59.91;100086.94;4829732;29;19972;-68
2022/08/08 21:49:49;;;;;;;;;;;;;;;20.80;60.30;100079.84;4827132;29;19985;-67
2022/08/08 21:52:17;;;;;;;;;;;;;;;20.65;60.82;100082.97;4827004;29;20011;-67
2022/08/08 21:55:06;;;;;;;;;;;;;;;20.66;60.59;100079.44;4826201;29;19929;-67
2022/08/08 21:57:56;;;;;;;;;;;;;;;20.62;60.34;100073.53;4827017;29;19929;-73
2022/08/08 22:00:34;;;;;;;;;;;;;;;20.67;60.21;100073.38;4841360;29;19956;-67
2022/08/08 22:03:08;;;;;;;;;;;;;;;20.66;60.42;100076.84;4824939;29;20273;-67
2022/08/08 22:05:42;;;;;;;;;;;;;;;20.64;60.85;100074.31;4826632;29;19928;-73
2022/08/08 22:08:11;;;;;;;;;;;;;;;20.53;60.80;100076.47;4825191;29;19977;-73
2022/08/08 22:10:42;;;;;;;;;;;;;;;20.43;61.34;100075.09;4824215;29;20009;-73
2022/08/08 22:13:13;;;;;;;;;;;;;;;20.37;61.20;100077.88;4824941;29;19962;-73
2022/08/08 22:15:47;;;;;;;;;;;;;;;20.34;61.65;100067.63;4824665;29;19958;-73
2022/08/08 22:18:28;;;;;;;;;;;;;;;20.31;61.94;100072.91;4826579;29;19932;-73
2022/08/08 22:20:58;;;;;;;;;;;;;;;20.24;62.33;100065.38;4807406;29;19933;-73
2022/08/08 22:23:43;;;;;;;;;;;;;;;20.24;62.13;100070.56;4823870;29;19968;-73
2022/08/08 22:26:21;;;;;;;;;;;;;;;20.22;62.36;100072.34;4810253;29;20303;-73
2022/08/08 22:29:00;;;;;;;;;;;;;;;20.10;62.68;100072.75;4809990;29;19929;-73
2022/08/08 22:31:49;;;;;;;;;;;;;;;20.12;63.05;100076.13;4824647;29;19951;-73
2022/08/08 22:34:30;;;;;;;;;;;;;;;20.17;63.13;100069.91;4825394;29;20395;-68
2022/08/08 22:36:59;;;;;;;;;;;;;;;20.24;63.45;100070.56;4825638;29;20267;-67
2022/08/08 22:39:27;;;;;;;;;;;;;;;20.22;63.37;100074.94;4826589;29;19929;-67
2022/08/08 22:42:16;;;;;;;;;;;;;;;20.21;63.39;100066.31;4808863;29;20025;-67
2022/08/08 22:44:56;;;;;;;;;;;;;;;20.15;63.80;100065.69;4825485;29;19933;-67
2022/08/08 22:47:24;;;;;;;;;;;;;;;20.06;64.22;100069.41;4822589;29;19966;-72
2022/08/08 22:50:09;;;;;;;;;;;;;;;19.97;64.13;100078.34;4825453;29;20020;-70
2022/08/08 22:52:56;;;;;;;;;;;;;;;19.94;63.60;100078.44;4823223;29;20388;-67
2022/08/08 22:55:44;;;;;;;;;;;;;;;19.97;62.17;100077.47;4824263;29;19933;-68
2022/08/08 22:58:29;;;;;;;;;;;;;;;20.06;61.67;100079.78;4823368;29;19929;-68
2022/08/08 23:01:04;;;;;;;;;;;;;;;20.13;61.82;100083.03;4825026;29;19972;-67
2022/08/08 23:03:52;;;;;;;;;;;;;;;20.08;62.07;100089.19;4824062;29;19979;-67
2022/08/08 23:06:23;;;;;;;;;;;;;;;20.11;61.79;100092.59;4806488;29;19929;-67
2022/08/08 23:08:52;;;;;;;;;;;;;;;20.11;61.87;100087.41;4823974;29;19936;-67
2022/08/08 23:11:27;;;;;;;;;;;;;;;20.06;61.94;100090.13;4824714;29;19929;-67
2022/08/08 23:14:16;;;;;;;;;;;;;;;20.04;61.59;100079.81;4823093;29;20025;-68
2022/08/08 23:16:47;;;;;;;;;;;;;;;20.00;61.57;100088.63;4824533;29;19933;-67
2022/08/08 23:19:28;;;;;;;;;;;;;;;19.99;61.44;100092.09;4825023;29;20375;-67
2022/08/08 23:21:58;;;;;;;;;;;;;;;19.96;61.51;100092.19;4824723;29;19929;-67
2022/08/08 23:24:26;;;;;;;;;;;;;;;19.95;61.34;100090.50;4823860;29;20363;-73
2022/08/08 23:27:04;;;;;;;;;;;;;;;19.92;61.38;100093.19;4823783;29;19958;-73
2022/08/08 23:29:33;;;;;;;;;;;;;;;19.83;61.62;100085.72;4819223;29;20295;-73
2022/08/08 23:32:03;;;;;;;;;;;;;;;19.81;61.55;100091.84;4823613;29;19960;-73
2022/08/08 23:34:32;;;;;;;;;;;;;;;19.77;61.30;100090.25;4790318;29;19962;-73
2022/08/08 23:37:01;;;;;;;;;;;;;;;19.77;61.50;100096.25;4807361;29;20437;-73
2022/08/08 23:39:31;;;;;;;;;;;;;;;19.75;61.44;100098.03;4821325;29;19928;-73
2022/08/08 23:42:16;;;;;;;;;;;;;;;19.72;61.76;100102.50;4817787;29;19928;-73
2022/08/08 23:44:48;;;;;;;;;;;;;;;19.54;62.32;100096.13;4824178;29;19929;-67
2022/08/08 23:47:22;;;;;;;;;;;;;;;19.38;63.08;100092.31;4823520;29;19933;-67
2022/08/08 23:50:13;;;;;;;;;;;;;;;19.28;63.42;100096.03;4824621;29;19952;-68
2022/08/08 23:52:58;;;;;;;;;;;;;;;19.33;63.50;100094.16;4822310;29;19933;-67
2022/08/08 23:55:32;;;;;;;;;;;;;;;19.33;63.17;100088.97;4824527;29;20392;-67
2022/08/08 23:58:09;;;;;;;;;;;;;;;19.33;63.64;100099.34;4825213;29;20010;-67
